Time;durP1;ratioP1;P1;durP2;ratioP2;P2;SDS_P1;SDS_P2;PMS_P1;PMS_P2;Temp;Humidity;BMP_temperature;BMP_pressure;BME280_temperature;BME280_humidity;BME280_pressure;Samples;Min_cycle;Max_cycle;Signal;HPM_P1;HPM_P2
2021/05/08 00:00:17;;;;;;;57.28;2.70;;;3.30;97.00;;;;;;5113804;28;20312;-65
2021/05/08 00:02:45;;;;;;;60.05;3.20;;;3.20;97.50;;;;;;5113389;28;20214;-65
2021/05/08 00:05:13;;;;;;;57.63;2.80;;;3.20;98.70;;;;;;5113299;28;20220;-66
2021/05/08 00:07:39;;;;;;;58.50;2.90;;;3.20;98.20;;;;;;5113844;28;20208;-65
2021/05/08 00:10:08;;;;;;;57.30;3.00;;;3.20;97.80;;;;;;5113610;28;20231;-65
2021/05/08 00:12:34;;;;;;;58.42;3.08;;;3.20;98.90;;;;;;5112768;28;20257;-65
2021/05/08 00:15:01;;;;;;;57.88;3.03;;;3.10;99.00;;;;;;5113710;28;20559;-65
2021/05/08 00:17:27;;;;;;;57.55;2.95;;;3.10;99.40;;;;;;5113343;28;20238;-65
2021/05/08 00:19:54;;;;;;;57.85;2.80;;;3.10;98.70;;;;;;5113225;28;20257;-65
2021/05/08 00:22:21;;;;;;;58.42;3.28;;;3.10;98.20;;;;;;5112828;28;20348;-64
2021/05/08 00:24:47;;;;;;;57.72;2.95;;;3.10;98.00;;;;;;5113231;28;20624;-65
2021/05/08 00:27:13;;;;;;;58.00;3.28;;;3.00;97.50;;;;;;5112982;28;20672;-65
2021/05/08 00:29:40;;;;;;;57.85;2.78;;;3.00;97.20;;;;;;5113326;28;20203;-64
2021/05/08 00:32:06;;;;;;;58.10;3.38;;;3.00;96.60;;;;;;5112720;28;20223;-65
2021/05/08 00:34:32;;;;;;;58.00;2.80;;;2.90;97.00;;;;;;5112940;28;20286;-65
2021/05/08 00:37:00;;;;;;;58.20;4.03;;;2.80;97.60;;;;;;5112885;28;20301;-65
2021/05/08 00:39:26;;;;;;;57.67;3.30;;;2.80;98.00;;;;;;5113071;28;20211;-65
2021/05/08 00:41:52;;;;;;;57.78;3.10;;;2.70;97.80;;;;;;5112184;28;20719;-64
2021/05/08 00:44:19;;;;;;;57.50;3.20;;;2.70;98.70;;;;;;5112877;28;20213;-65
2021/05/08 00:46:45;;;;;;;58.03;3.20;;;2.70;99.90;;;;;;5112466;28;20219;-64
2021/05/08 00:49:12;;;;;;;62.13;3.47;;;2.60;99.90;;;;;;5112694;28;20668;-64
2021/05/08 00:51:38;;;;;;;58.70;4.53;;;2.60;99.90;;;;;;5112942;28;20459;-65
2021/05/08 00:54:06;;;;;;;60.17;4.00;;;2.60;99.90;;;;;;5112353;28;20295;-65
2021/05/08 00:56:32;;;;;;;58.47;3.75;;;2.60;99.90;;;;;;5112623;28;20362;-64
2021/05/08 00:58:58;;;;;;;58.10;3.40;;;2.60;99.90;;;;;;5112632;28;20222;-64
2021/05/08 01:01:25;;;;;;;57.58;3.03;;;2.60;99.90;;;;;;5112365;28;20346;-65
2021/05/08 01:03:51;;;;;;;57.85;2.97;;;2.60;99.90;;;;;;5112471;28;20291;-64
2021/05/08 01:06:17;;;;;;;58.47;3.45;;;2.60;99.90;;;;;;5112811;28;20234;-64
2021/05/08 01:08:44;;;;;;;57.95;3.20;;;2.50;99.90;;;;;;5112418;28;20234;-65
2021/05/08 01:11:11;;;;;;;58.08;3.00;;;2.50;99.90;;;;;;5112383;28;20230;-64
2021/05/08 01:13:38;;;;;;;57.53;2.80;;;2.50;99.90;;;;;;5111446;28;20649;-64
2021/05/08 01:16:05;;;;;;;57.65;3.10;;;2.50;99.90;;;;;;5112203;28;20294;-64
2021/05/08 01:18:32;;;;;;;57.42;3.20;;;2.40;99.90;;;;;;5112548;28;20204;-65
2021/05/08 01:20:58;;;;;;;57.88;3.03;;;2.40;99.90;;;;;;5112476;28;20231;-64
2021/05/08 01:23:26;;;;;;;58.10;3.05;;;2.30;99.90;;;;;;5112112;28;20683;-64
2021/05/08 01:25:52;;;;;;;57.85;3.10;;;2.30;99.90;;;;;;5112511;28;20234;-64
2021/05/08 01:28:18;;;;;;;57.78;3.00;;;2.30;99.90;;;;;;5112200;28;20302;-65
2021/05/08 01:30:46;;;;;;;58.53;3.50;;;2.30;99.90;;;;;;5112353;28;20314;-65
2021/05/08 01:33:12;;;;;;;58.28;3.40;;;2.20;99.90;;;;;;5111616;28;20207;-65
2021/05/08 01:35:39;;;;;;;57.85;3.10;;;2.20;99.90;;;;;;5111498;28;20652;-65
2021/05/08 01:38:05;;;;;;;57.75;3.00;;;2.20;99.90;;;;;;5112534;28;20294;-65
2021/05/08 01:40:34;;;;;;;57.75;3.10;;;2.20;99.90;;;;;;5111922;28;20236;-66
2021/05/08 01:43:01;;;;;;;58.25;4.03;;;2.20;99.90;;;;;;5111273;28;20294;-65
2021/05/08 01:45:28;;;;;;;57.88;3.00;;;2.10;99.90;;;;;;5111820;28;20226;-66
2021/05/08 01:47:55;;;;;;;58.22;3.13;;;2.20;99.90;;;;;;5112045;28;20229;-66
2021/05/08 01:50:23;;;;;;;58.10;2.92;;;2.20;99.90;;;;;;5111983;28;20230;-66
2021/05/08 01:52:50;;;;;;;57.88;3.33;;;2.20;99.90;;;;;;5111648;28;20256;-65
2021/05/08 01:55:18;;;;;;;58.28;3.67;;;2.20;99.90;;;;;;5111505;28;20209;-66
2021/05/08 01:57:47;;;;;;;57.78;3.10;;;2.20;99.90;;;;;;5112036;28;20356;-66
2021/05/08 02:00:20;;;;;;;57.75;3.03;;;2.10;99.90;;;;;;5111858;28;20310;-66
2021/05/08 02:02:48;;;;;;;57.95;2.97;;;2.10;99.90;;;;;;5111617;28;20208;-66
2021/05/08 02:05:14;;;;;;;58.05;3.40;;;2.10;99.90;;;;;;5111461;28;20310;-65
2021/05/08 02:07:41;;;;;;;57.60;3.45;;;2.00;99.90;;;;;;5111804;28;20210;-66
2021/05/08 02:10:10;;;;;;;57.97;3.20;;;2.00;99.90;;;;;;5111301;28;20575;-66
2021/05/08 02:12:38;;;;;;;57.80;3.30;;;1.90;99.90;;;;;;5111683;28;20687;-66
2021/05/08 02:15:07;;;;;;;57.35;2.92;;;1.90;99.90;;;;;;5111726;28;20195;-65
2021/05/08 02:17:34;;;;;;;57.60;2.95;;;1.80;99.90;;;;;;5109286;28;20242;-66
2021/05/08 02:20:01;;;;;;;57.83;3.13;;;1.80;99.90;;;;;;5111367;28;20198;-66
2021/05/08 02:22:27;;;;;;;58.00;3.45;;;1.80;99.90;;;;;;5111212;28;20298;-65
2021/05/08 02:24:53;;;;;;;58.20;2.85;;;1.80;99.90;;;;;;5111199;28;20262;-66
2021/05/08 02:27:20;;;;;;;58.17;3.08;;;1.70;99.90;;;;;;5111709;28;20291;-66
2021/05/08 02:29:46;;;;;;;58.45;3.35;;;1.70;99.90;;;;;;5111707;28;20310;-66
2021/05/08 02:32:13;;;;;;;58.10;3.20;;;1.70;99.90;;;;;;5111120;28;20640;-66
2021/05/08 02:34:40;;;;;;;58.13;3.67;;;1.70;99.90;;;;;;5111300;28;20242;-65
2021/05/08 02:37:06;;;;;;;57.65;2.80;;;1.70;99.90;;;;;;5111416;28;20271;-66
2021/05/08 02:39:32;;;;;;;58.60;3.50;;;1.70;99.90;;;;;;5111561;28;20208;-66
2021/05/08 02:41:58;;;;;;;57.88;3.00;;;1.70;99.90;;;;;;5111139;28;20338;-66
2021/05/08 02:44:25;;;;;;;58.08;3.15;;;1.80;99.90;;;;;;5111172;28;20215;-66
2021/05/08 02:46:51;;;;;;;58.05;3.05;;;1.80;99.90;;;;;;5114857;28;20233;-65
2021/05/08 02:49:18;;;;;;;57.58;3.20;;;1.80;99.90;;;;;;5112723;28;20230;-66
2021/05/08 02:51:45;;;;;;;58.10;3.00;;;1.80;99.90;;;;;;5114810;28;20302;-65
2021/05/08 02:54:11;;;;;;;58.20;2.90;;;1.80;99.90;;;;;;5114863;28;20294;-66
2021/05/08 02:56:37;;;;;;;58.17;3.38;;;1.80;99.90;;;;;;5115232;28;20270;-66
2021/05/08 02:59:04;;;;;;;57.65;3.00;;;1.80;99.90;;;;;;5115093;28;20260;-66
2021/05/08 03:01:30;;;;;;;57.78;3.20;;;1.80;99.90;;;;;;5114992;28;20245;-66
2021/05/08 03:03:57;;;;;;;57.53;2.80;;;1.80;99.90;;;;;;5114446;28;20204;-65
2021/05/08 03:06:24;;;;;;;58.50;3.35;;;1.80;99.90;;;;;;5114450;28;20594;-65
2021/05/08 03:08:50;;;;;;;58.10;3.60;;;1.80;99.90;;;;;;5114771;28;20294;-66
2021/05/08 03:11:16;;;;;;;57.90;3.50;;;1.80;99.90;;;;;;5115182;28;20314;-65
2021/05/08 03:13:43;;;;;;;57.72;2.83;;;1.80;99.90;;;;;;5114305;28;20698;-65
2021/05/08 03:16:09;;;;;;;58.10;3.38;;;1.80;99.90;;;;;;5114531;28;20246;-65
2021/05/08 03:18:36;;;;;;;58.80;4.03;;;1.90;99.90;;;;;;5114234;28;20207;-65
2021/05/08 03:21:02;;;;;;;57.67;3.10;;;1.90;99.90;;;;;;5114339;28;20234;-66
2021/05/08 03:23:29;;;;;;;58.95;4.13;;;1.90;99.90;;;;;;5114287;28;20226;-66
2021/05/08 03:25:56;;;;;;;57.97;3.00;;;1.80;99.90;;;;;;5114806;27;20319;-66
2021/05/08 03:28:22;;;;;;;57.25;2.90;;;1.80;99.90;;;;;;5114435;28;20199;-66
2021/05/08 03:30:48;;;;;;;57.35;3.03;;;1.80;99.90;;;;;;5114491;28;20504;-65
2021/05/08 03:33:15;;;;;;;58.10;2.75;;;1.70;99.90;;;;;;5114086;28;20238;-66
2021/05/08 03:35:41;;;;;;;57.90;2.60;;;1.70;99.90;;;;;;5114104;28;20254;-66
2021/05/08 03:38:07;;;;;;;57.88;3.00;;;1.70;99.90;;;;;;5114283;28;20208;-65
2021/05/08 03:40:34;;;;;;;58.08;3.00;;;1.70;99.90;;;;;;5114105;28;20255;-66
2021/05/08 03:43:01;;;;;;;57.95;3.17;;;1.70;99.90;;;;;;5113973;28;20664;-66
2021/05/08 03:45:27;;;;;;;57.22;3.10;;;1.70;99.90;;;;;;5113735;28;20774;-66
2021/05/08 03:47:54;;;;;;;58.17;3.42;;;1.70;99.90;;;;;;5113964;28;20203;-66
2021/05/08 03:50:20;;;;;;;57.50;2.70;;;1.70;99.90;;;;;;5113804;28;20315;-66
2021/05/08 03:52:47;;;;;;;58.40;3.38;;;1.70;99.90;;;;;;5114030;28;20203;-66
2021/05/08 03:55:13;;;;;;;57.10;2.90;;;1.70;99.90;;;;;;5113804;28;20649;-66
2021/05/08 03:57:40;;;;;;;57.78;3.30;;;1.70;99.90;;;;;;5113058;28;20294;-66
2021/05/08 04:00:07;;;;;;;57.33;2.90;;;1.60;99.90;;;;;;5113987;27;20210;-66
2021/05/08 04:02:34;;;;;;;57.97;3.00;;;1.70;99.90;;;;;;5113309;28;20767;-66
2021/05/08 04:05:00;;;;;;;58.42;3.22;;;1.70;99.90;;;;;;5113399;28;20298;-66
2021/05/08 04:07:26;;;;;;;58.10;3.17;;;1.70;99.90;;;;;;5113850;28;20206;-66
2021/05/08 04:09:53;;;;;;;58.08;3.00;;;1.70;99.90;;;;;;5113650;28;20295;-66
2021/05/08 04:12:19;;;;;;;58.10;2.90;;;1.70;99.90;;;;;;5113414;28;20210;-66
2021/05/08 04:14:46;;;;;;;57.78;3.10;;;1.70;99.90;;;;;;5113573;28;20231;-66
2021/05/08 04:17:13;;;;;;;57.80;3.20;;;1.70;99.90;;;;;;5113123;28;20254;-67
2021/05/08 04:19:39;;;;;;;58.50;3.10;;;1.70;99.90;;;;;;5113655;28;20290;-66
2021/05/08 04:22:05;;;;;;;57.13;2.80;;;1.70;99.90;;;;;;5113191;28;20299;-66
2021/05/08 04:24:31;;;;;;;57.88;3.00;;;1.70;99.90;;;;;;5113622;28;20250;-66
2021/05/08 04:26:58;;;;;;;57.72;2.92;;;1.70;99.90;;;;;;5113099;27;20303;-66
2021/05/08 04:29:24;;;;;;;57.25;3.00;;;1.70;99.90;;;;;;5113755;28;20214;-66
2021/05/08 04:31:51;;;;;;;58.00;3.20;;;1.80;99.90;;;;;;5113379;28;20731;-65
2021/05/08 04:34:19;;;;;;;57.72;2.80;;;1.70;99.90;;;;;;5113323;28;20303;-65
2021/05/08 04:36:45;;;;;;;57.65;3.15;;;1.80;99.90;;;;;;5113225;28;20203;-66
2021/05/08 04:39:13;;;;;;;57.58;2.83;;;1.80;99.90;;;;;;5113039;28;20754;-66
2021/05/08 04:41:39;;;;;;;57.58;3.08;;;1.80;99.90;;;;;;5113052;28;20314;-66
2021/05/08 04:44:06;;;;;;;58.30;3.42;;;1.80;99.90;;;;;;5112420;27;20292;-66
2021/05/08 04:46:32;;;;;;;58.10;3.53;;;1.80;99.90;;;;;;5112776;28;20386;-66
2021/05/08 04:48:59;;;;;;;58.00;3.13;;;1.80;99.90;;;;;;5113120;28;20214;-66
2021/05/08 04:51:27;;;;;;;57.88;3.22;;;1.90;99.90;;;;;;5112993;28;20227;-66
2021/05/08 04:53:53;;;;;;;57.78;3.28;;;1.90;99.90;;;;;;5112330;28;20695;-66
2021/05/08 04:56:20;;;;;;;57.75;2.70;;;1.90;99.90;;;;;;5112998;28;20199;-67
2021/05/08 04:58:46;;;;;;;57.65;3.28;;;1.90;99.90;;;;;;5112562;28;20690;-66
2021/05/08 05:01:12;;;;;;;58.10;3.25;;;1.90;99.90;;;;;;5112792;28;20305;-66
2021/05/08 05:03:39;;;;;;;57.75;3.40;;;2.00;99.90;;;;;;5112340;28;20696;-66
2021/05/08 05:06:06;;;;;;;57.60;2.92;;;2.00;99.90;;;;;;5112506;28;20227;-66
2021/05/08 05:08:33;;;;;;;58.00;3.40;;;2.10;99.90;;;;;;5112606;28;20204;-66
2021/05/08 05:10:59;;;;;;;57.67;3.50;;;2.10;99.90;;;;;;5112532;28;20680;-66
2021/05/08 05:13:26;;;;;;;57.88;3.45;;;2.10;99.90;;;;;;5112063;28;20231;-66
2021/05/08 05:15:53;;;;;;;57.88;3.47;;;2.20;99.90;;;;;;5111943;28;20291;-66
2021/05/08 05:18:19;;;;;;;57.97;2.80;;;2.20;99.90;;;;;;5112596;28;20242;-66
2021/05/08 05:20:46;;;;;;;57.60;2.70;;;2.20;99.90;;;;;;5112193;28;20307;-66
2021/05/08 05:23:13;;;;;;;58.00;2.88;;;2.30;99.90;;;;;;5112111;28;20209;-66
2021/05/08 05:25:40;;;;;;;57.42;2.92;;;2.40;99.90;;;;;;5111865;28;20770;-65
2021/05/08 05:28:20;;;;;;;57.70;2.95;;;2.40;99.90;;;;;;5112197;28;20214;-65
2021/05/08 05:30:46;;;;;;;57.35;3.08;;;2.50;99.90;;;;;;5112629;28;20227;-66
2021/05/08 05:33:13;;;;;;;58.00;3.15;;;2.50;99.90;;;;;;5111768;28;20683;-66
2021/05/08 05:35:40;;;;;;;58.65;3.50;;;2.60;99.90;;;;;;5111827;28;20638;-66
2021/05/08 05:38:06;;;;;;;59.53;4.88;;;2.70;99.90;;;;;;5112231;28;20292;-66
2021/05/08 05:40:34;;;;;;;57.67;2.97;;;2.70;99.90;;;;;;5111813;28;20314;-66
2021/05/08 05:43:00;;;;;;;57.03;2.63;;;2.80;99.90;;;;;;5112015;28;20659;-64
2021/05/08 05:45:26;;;;;;;57.75;3.00;;;2.90;99.90;;;;;;5111697;28;20223;-66
2021/05/08 05:47:56;;;;;;;57.50;2.75;;;3.00;99.90;;;;;;5112104;28;20214;-63
2021/05/08 05:50:24;;;;;;;57.80;3.33;;;3.00;99.90;;;;;;5112305;28;20265;-64
2021/05/08 05:52:52;;;;;;;56.92;3.05;;;3.10;99.90;;;;;;5111527;28;20203;-63
2021/05/08 05:55:19;;;;;;;57.20;3.53;;;3.20;99.90;;;;;;5111922;28;20644;-66
2021/05/08 05:57:46;;;;;;;58.47;3.53;;;3.30;99.90;;;;;;5111778;28;20731;-64
2021/05/08 06:00:14;;;;;;;58.47;3.22;;;3.40;99.90;;;;;;5111909;28;20323;-64
2021/05/08 06:02:40;;;;;;;57.58;3.33;;;3.50;99.90;;;;;;5111700;28;20294;-64
2021/05/08 06:05:07;;;;;;;58.30;3.30;;;3.60;99.90;;;;;;5111528;28;20234;-64
2021/05/08 06:07:33;;;;;;;58.38;3.97;;;3.70;99.90;;;;;;5111539;28;20204;-64
2021/05/08 06:09:59;;;;;;;58.20;3.80;;;3.80;99.90;;;;;;5111919;28;20688;-64
2021/05/08 06:12:26;;;;;;;56.80;2.67;;;3.90;99.90;;;;;;5111559;28;20294;-64
2021/05/08 06:14:53;;;;;;;57.15;2.70;;;4.00;99.90;;;;;;5111451;28;20235;-65
2021/05/08 06:17:19;;;;;;;59.63;4.57;;;4.10;99.90;;;;;;5111608;28;20724;-64
2021/05/08 06:19:46;;;;;;;58.78;4.25;;;4.30;99.90;;;;;;5112317;28;20691;-64
2021/05/08 06:22:12;;;;;;;60.92;3.72;;;4.40;99.90;;;;;;5115799;27;20220;-65
2021/05/08 06:24:38;;;;;;;57.42;2.95;;;4.50;99.90;;;;;;5115643;28;20203;-65
2021/05/08 06:27:05;;;;;;;57.72;3.10;;;4.70;99.90;;;;;;5116102;28;20359;-65
2021/05/08 06:29:31;;;;;;;57.85;2.67;;;4.90;99.90;;;;;;5115846;28;20211;-64
2021/05/08 06:31:59;;;;;;;57.72;3.38;;;5.10;99.90;;;;;;5115287;28;20695;-65
2021/05/08 06:34:25;;;;;;;59.30;3.78;;;5.20;99.90;;;;;;5115176;28;20286;-65
2021/05/08 06:36:51;;;;;;;57.35;2.50;;;5.40;99.90;;;;;;5115773;28;20200;-65
2021/05/08 06:39:18;;;;;;;58.05;2.80;;;5.60;99.90;;;;;;5115674;28;20288;-64
2021/05/08 06:41:44;;;;;;;57.80;2.95;;;5.80;99.90;;;;;;5115697;28;20662;-65
2021/05/08 06:44:10;;;;;;;62.10;3.60;;;6.00;99.90;;;;;;5114910;28;20210;-64
2021/05/08 06:46:36;;;;;;;57.80;2.45;;;6.10;97.30;;;;;;5115387;28;20220;-65
2021/05/08 06:49:04;;;;;;;58.00;2.80;;;6.30;96.30;;;;;;5115239;28;20753;-65
2021/05/08 06:51:30;;;;;;;58.00;3.63;;;6.50;95.00;;;;;;5115428;28;20306;-64
2021/05/08 06:53:57;;;;;;;57.92;2.88;;;6.70;89.60;;;;;;5114982;28;20204;-65
2021/05/08 06:56:25;;;;;;;57.60;2.60;;;6.90;85.70;;;;;;5115103;28;20286;-65
2021/05/08 06:58:52;;;;;;;57.30;2.47;;;7.00;76.80;;;;;;5115158;28;20204;-65
2021/05/08 07:01:19;;;;;;;57.58;2.58;;;7.20;72.00;;;;;;5115081;28;20562;-66
2021/05/08 07:03:45;;;;;;;57.78;2.80;;;7.30;63.90;;;;;;5114038;28;20291;-66
2021/05/08 07:06:13;;;;;;;57.47;2.43;;;7.50;58.20;;;;;;5115414;28;20633;-66
2021/05/08 07:08:39;;;;;;;58.20;2.92;;;7.70;59.40;;;;;;5115265;28;20591;-66
2021/05/08 07:11:06;;;;;;;57.63;2.40;;;7.90;49.90;;;;;;5114949;28;20227;-66
2021/05/08 07:13:32;;;;;;;57.80;2.50;;;8.10;40.00;;;;;;5114343;28;20458;-66
2021/05/08 07:15:58;;;;;;;57.70;2.43;;;8.30;36.70;;;;;;5114714;28;20470;-66
2021/05/08 07:18:25;;;;;;;57.67;2.80;;;8.50;34.50;;;;;;5114578;28;20534;-67
2021/05/08 07:20:52;;;;;;;57.63;2.43;;;8.70;31.20;;;;;;5115021;28;20552;-64
2021/05/08 07:23:20;;;;;;;57.27;2.33;;;8.80;24.10;;;;;;5114608;28;20530;-66
2021/05/08 07:25:47;;;;;;;57.63;2.97;;;9.00;16.60;;;;;;5114366;28;20507;-65
2021/05/08 07:28:14;;;;;;;57.60;2.60;;;9.20;16.30;;;;;;5114550;28;20500;-67
2021/05/08 07:30:41;;;;;;;57.37;2.40;;;9.40;13.30;;;;;;5114796;27;20875;-63
2021/05/08 07:33:08;;;;;;;58.37;3.07;;;9.60;10.20;;;;;;5113031;27;20455;-64
2021/05/08 07:35:34;;;;;;;60.73;3.70;;;9.80;10.70;;;;;;5113806;28;20532;-64
2021/05/08 07:38:00;;;;;;;57.33;2.50;;;10.00;6.90;;;;;;5114797;28;20538;-64
2021/05/08 07:40:30;;;;;;;57.77;2.80;;;10.30;3.70;;;;;;5114293;28;20465;-64
2021/05/08 07:42:56;;;;;;;57.90;2.87;;;10.50;4.40;;;;;;5113878;28;20445;-64
2021/05/08 07:45:23;;;;;;;57.87;3.27;;;10.80;3.90;;;;;;5113846;28;20543;-65
2021/05/08 07:47:49;;;;;;;57.37;2.60;;;11.00;1.00;;;;;;5114235;28;20478;-65
2021/05/08 07:50:16;;;;;;;57.80;2.83;;;11.20;1.00;;;;;;5113983;28;20496;-64
2021/05/08 07:52:42;;;;;;;57.53;3.00;;;11.40;1.00;;;;;;5113806;28;20524;-65
2021/05/08 07:55:09;;;;;;;58.37;3.30;;;11.60;1.00;;;;;;5114060;28;20509;-65
2021/05/08 07:57:37;;;;;;;57.40;2.13;;;11.80;1.00;;;;;;5113990;28;20532;-66
2021/05/08 08:00:06;;;;;;;57.90;2.70;;;12.00;1.00;;;;;;5113744;28;20471;-65
2021/05/08 08:02:33;;;;;;;57.37;2.50;;;12.20;1.00;;;;;;5113674;28;20446;-66
2021/05/08 08:04:59;;;;;;;57.23;2.50;;;12.40;1.00;;;;;;5113408;28;20604;-65
2021/05/08 08:07:25;;;;;;;57.07;2.37;;;12.50;1.00;;;;;;5113888;28;20568;-66
2021/05/08 08:09:52;;;;;;;57.37;2.57;;;12.60;1.00;;;;;;5113844;28;20474;-65
2021/05/08 08:12:18;;;;;;;57.77;2.90;;;12.70;1.00;;;;;;5113607;28;20492;-66
2021/05/08 08:14:45;;;;;;;57.37;2.33;;;12.70;1.00;;;;;;5113209;28;20896;-65
2021/05/08 08:17:11;;;;;;;57.40;2.50;;;12.70;1.00;;;;;;5113536;28;20502;-65
2021/05/08 08:19:38;;;;;;;57.37;2.50;;;12.60;1.00;;;;;;5113806;28;20532;-65
2021/05/08 08:22:04;;;;;;;57.27;2.40;;;12.60;1.00;;;;;;5113575;28;20569;-65
2021/05/08 08:24:31;;;;;;;57.17;2.13;;;12.60;1.00;;;;;;5113320;28;20587;-66
2021/05/08 08:26:57;;;;;;;57.47;3.20;;;12.70;1.00;;;;;;5113119;28;20484;-65
2021/05/08 08:29:26;;;;;;;57.17;2.47;;;12.70;1.00;;;;;;5113298;28;20878;-65
2021/05/08 08:31:53;;;;;;;57.07;2.20;;;12.80;1.00;;;;;;5113144;28;20544;-65
2021/05/08 08:34:19;;;;;;;57.23;2.30;;;12.90;1.00;;;;;;5113369;28;20477;-65
2021/05/08 08:36:46;;;;;;;57.17;2.27;;;13.10;1.00;;;;;;5112989;28;20494;-65
2021/05/08 08:39:12;;;;;;;57.23;2.20;;;13.20;1.00;;;;;;5112774;28;21008;-65
2021/05/08 08:41:38;;;;;;;56.87;2.40;;;13.30;1.00;;;;;;5113012;28;20560;-65
2021/05/08 08:44:09;;;;;;;57.10;2.30;;;13.50;1.00;;;;;;5112418;28;20532;-66
2021/05/08 08:46:40;;;;;;;58.30;2.90;;;13.80;1.00;;;;;;5113342;28;20524;-65
2021/05/08 08:49:07;;;;;;;57.60;2.43;;;14.00;1.00;;;;;;5112872;28;20964;-65
2021/05/08 08:51:34;;;;;;;57.53;2.60;;;14.10;1.00;;;;;;5113235;28;20556;-65
2021/05/08 08:54:00;;;;;;;57.40;2.40;;;14.30;1.00;;;;;;5112429;28;20990;-65
2021/05/08 08:56:40;;;;;;;57.13;2.27;;;14.50;1.00;;;;;;5112713;28;20536;-65
2021/05/08 08:59:14;;;;;;;57.90;2.73;;;14.80;1.00;;;;;;5112820;28;20449;-65
2021/05/08 09:01:41;;;;;;;57.50;2.43;;;15.10;1.00;;;;;;5113001;28;20462;-65
2021/05/08 09:04:09;;;;;;;57.30;2.40;;;15.50;1.00;;;;;;5112417;28;20445;-65
2021/05/08 09:06:38;;;;;;;57.27;2.50;;;15.70;1.00;;;;;;5112080;28;20828;-66
2021/05/08 09:09:05;;;;;;;57.57;2.50;;;15.90;1.00;;;;;;5112630;28;21000;-65
2021/05/08 09:11:31;;;;;;;57.13;2.43;;;16.10;1.00;;;;;;5112705;28;20811;-65
2021/05/08 09:14:17;;;;;;;57.47;2.40;;;16.00;1.00;;;;;;5111940;28;20488;-66
2021/05/08 09:17:09;;;;;;;57.07;2.30;;;15.90;1.00;;;;;;5112349;28;20877;-66
2021/05/08 09:19:38;;;;;;;57.27;2.27;;;16.10;1.00;;;;;;5093116;28;20834;-66
2021/05/08 09:22:26;;;;;;;57.37;2.47;;;16.40;1.00;;;;;;5112192;28;20547;-66
2021/05/08 09:24:55;;;;;;;57.10;2.60;;;16.70;1.00;;;;;;5099629;27;20453;-66
2021/05/08 09:27:33;;;;;;;57.47;2.50;;;16.90;1.00;;;;;;5112309;28;20499;-65
2021/05/08 09:30:14;;;;;;;57.30;2.30;;;17.00;1.00;;;;;;5112075;28;20442;-65
2021/05/08 09:32:43;;;;;;;57.27;2.50;;;17.00;1.00;;;;;;5111904;28;20489;-66
2021/05/08 09:35:13;;;;;;;58.40;2.50;;;17.00;1.00;;;;;;5112284;28;20449;-66
2021/05/08 09:37:39;;;;;;;57.27;2.30;;;17.20;1.00;;;;;;5111711;28;20463;-66
2021/05/08 09:40:23;;;;;;;57.77;2.60;;;17.50;1.00;;;;;;5112009;28;20539;-66
2021/05/08 09:42:52;;;;;;;57.30;2.13;;;17.70;1.00;;;;;;5111996;28;20458;-66
2021/05/08 09:45:20;;;;;;;57.23;2.27;;;17.90;1.00;;;;;;5111824;28;20509;-67
2021/05/08 09:47:46;;;;;;;57.17;2.27;;;18.00;1.00;;;;;;5112134;28;20757;-66
2021/05/08 09:50:14;;;;;;;57.20;2.30;;;18.20;1.00;;;;;;5112157;28;20947;-67
2021/05/08 09:52:49;;;;;;;57.23;2.30;;;18.30;1.00;;;;;;5111482;28;20539;-66
2021/05/08 09:55:16;;;;;;;57.30;2.50;;;18.50;1.00;;;;;;5110814;28;20531;-67
2021/05/08 09:57:56;;;;;;;57.17;2.30;;;18.40;1.00;;;;;;5112040;28;20488;-67
2021/05/08 10:00:31;;;;;;;58.00;2.87;;;18.40;1.00;;;;;;5111976;28;20949;-66
2021/05/08 10:03:06;;;;;;;57.17;2.40;;;18.40;1.00;;;;;;5111366;28;20479;-66
2021/05/08 10:05:34;;;;;;;57.50;2.43;;;18.40;1.00;;;;;;5111440;28;20934;-65
2021/05/08 10:08:00;;;;;;;57.17;2.30;;;18.50;1.00;;;;;;5111875;28;20480;-66
2021/05/08 10:10:26;;;;;;;58.00;3.20;;;18.70;1.00;;;;;;5111575;28;20543;-65
2021/05/08 10:12:54;;;;;;;57.13;2.40;;;18.80;1.00;;;;;;5111356;28;20540;-66
2021/05/08 10:15:21;;;;;;;57.30;2.30;;;18.90;1.00;;;;;;5111506;28;20454;-65
2021/05/08 10:17:49;;;;;;;56.93;2.50;;;19.20;1.00;;;;;;5111616;28;20488;-66
2021/05/08 10:20:17;;;;;;;57.07;2.40;;;19.70;1.00;;;;;;5111666;28;20477;-65
2021/05/08 10:22:48;;;;;;;57.43;2.23;;;20.40;1.00;;;;;;5111389;28;20533;-67
2021/05/08 10:25:15;;;;;;;57.13;2.50;;;21.10;1.00;;;;;;5111629;28;20456;-66
2021/05/08 10:27:41;;;;;;;57.70;3.20;;;22.00;1.00;;;;;;5111564;28;21000;-65
2021/05/08 10:30:14;;;;;;;57.37;2.47;;;23.00;1.00;;;;;;5111302;28;20968;-68
2021/05/08 10:32:43;;;;;;;57.40;2.30;;;23.80;1.00;;;;;;5111675;28;20443;-65
2021/05/08 10:35:11;;;;;;;57.27;2.27;;;;;;;;;;5111515;28;20835;-64
2021/05/08 10:37:38;;;;;;;57.30;2.20;;;;;;;;;;5111325;28;21112;-65
2021/05/08 10:40:16;;;;;;;57.37;2.50;;;25.70;1.00;;;;;;5111458;28;20485;-66
2021/05/08 10:42:44;;;;;;;57.27;2.30;;;25.60;1.00;;;;;;5111180;28;20448;-66
2021/05/08 10:45:32;;;;;;;57.43;2.27;;;25.40;1.00;;;;;;5111292;28;20948;-66
2021/05/08 10:48:11;;;;;;;57.70;2.47;;;24.40;1.00;;;;;;5105387;28;20549;-64
2021/05/08 10:50:47;;;;;;;57.60;2.20;;;23.50;1.00;;;;;;5111368;28;20466;-66
2021/05/08 10:53:15;;;;;;;57.30;2.30;;;23.60;1.00;;;;;;5111312;28;20850;-65
2021/05/08 10:55:48;;;;;;;57.20;2.20;;;24.00;1.00;;;;;;5111494;28;20484;-66
2021/05/08 10:58:31;;;;;;;57.40;2.33;;;24.20;1.00;;;;;;5111740;28;20442;-67
2021/05/08 11:00:59;;;;;;;57.50;2.37;;;24.10;1.00;;;;;;5111444;28;20549;-66
2021/05/08 11:03:27;;;;;;;57.33;2.10;;;23.80;1.00;;;;;;5110770;28;20862;-66
2021/05/08 11:05:55;;;;;;;57.23;2.20;;;23.60;1.00;;;;;;5111574;28;20484;-66
2021/05/08 11:08:46;;;;;;;57.50;2.40;;;23.30;1.00;;;;;;5115050;27;20442;-66
2021/05/08 11:11:16;;;;;;;57.30;2.40;;;22.90;1.00;;;;;;5114398;28;20469;-66
2021/05/08 11:13:54;;;;;;;57.57;2.40;;;22.70;1.00;;;;;;5114216;28;20445;-66
2021/05/08 11:16:21;;;;;;;57.07;2.20;;;22.70;1.00;;;;;;5114744;28;20453;-66
2021/05/08 11:18:48;;;;;;;57.40;2.30;;;22.90;1.00;;;;;;5114985;28;20449;-65
2021/05/08 11:21:37;;;;;;;57.17;2.40;;;23.20;1.00;;;;;;5115061;28;20504;-65
2021/05/08 11:24:05;;;;;;;57.30;2.20;;;23.50;1.00;;;;;;5114131;28;20477;-65
2021/05/08 11:26:37;;;;;;;57.27;2.30;;;23.80;1.00;;;;;;5114574;28;20487;-65
2021/05/08 11:29:05;;;;;;;57.03;2.20;;;24.00;1.00;;;;;;5114852;28;20446;-66
2021/05/08 11:31:33;;;;;;;57.17;2.00;;;24.30;1.00;;;;;;5114501;28;20994;-65
2021/05/08 11:34:08;;;;;;;57.30;2.20;;;24.60;1.00;;;;;;5113972;28;20446;-66
2021/05/08 11:36:46;;;;;;;56.83;2.23;;;24.90;1.00;;;;;;5114296;28;20528;-66
2021/05/08 11:39:13;;;;;;;57.00;2.10;;;25.40;1.00;;;;;;5114413;28;20537;-66
2021/05/08 11:41:41;;;;;;;57.13;2.17;;;25.70;1.00;;;;;;5114056;28;20554;-66
2021/05/08 11:44:08;;;;;;;57.30;2.07;;;25.00;1.00;;;;;;5114023;28;20889;-65
2021/05/08 11:46:35;;;;;;;57.30;2.67;;;24.30;1.00;;;;;;5114655;28;20477;-64
2021/05/08 11:49:01;;;;;;;56.97;2.30;;;23.70;1.00;;;;;;5113960;28;20533;-65
2021/05/08 11:51:28;;;;;;;56.77;2.30;;;23.40;1.00;;;;;;5114090;28;20552;-66
2021/05/08 11:54:09;;;;;;;56.80;2.00;;;23.20;1.00;;;;;;5113590;28;20535;-65
2021/05/08 11:56:35;;;;;;;56.47;2.30;;;23.00;1.00;;;;;;5113890;28;20448;-64
2021/05/08 11:59:04;;;;;;;57.23;2.17;;;23.00;1.00;;;;;;5113881;28;20481;-65
2021/05/08 12:01:31;;;;;;;57.00;2.50;;;22.90;1.00;;;;;;5113975;28;20533;-65
2021/05/08 12:03:59;;;;;;;56.53;2.20;;;22.70;1.00;;;;;;5113289;28;20494;-66
2021/05/08 12:06:25;;;;;;;57.23;2.20;;;22.60;1.00;;;;;;5113842;28;20545;-65
2021/05/08 12:08:52;;;;;;;57.40;2.30;;;22.50;1.00;;;;;;5114055;28;20449;-65
2021/05/08 12:11:19;;;;;;;56.97;2.33;;;22.10;1.00;;;;;;5113493;28;20462;-65
2021/05/08 12:13:46;;;;;;;57.70;2.53;;;21.90;1.00;;;;;;5113325;28;20462;-65
2021/05/08 12:16:14;;;;;;;57.37;2.20;;;21.80;1.00;;;;;;5113431;28;20458;-65
2021/05/08 12:18:41;;;;;;;57.37;2.50;;;21.90;1.00;;;;;;5113183;28;20459;-65
2021/05/08 12:21:11;;;;;;;56.87;2.20;;;22.10;1.00;;;;;;5113748;27;20479;-65
2021/05/08 12:23:38;;;;;;;57.50;2.40;;;22.30;1.00;;;;;;5113677;28;20535;-65
2021/05/08 12:26:14;;;;;;;56.97;2.07;;;22.30;1.00;;;;;;5113561;28;20511;-65
2021/05/08 12:28:53;;;;;;;56.97;2.33;;;22.30;1.00;;;;;;5113241;28;20532;-66
2021/05/08 12:31:22;;;;;;;56.67;2.10;;;22.30;1.00;;;;;;5113410;28;20852;-65
2021/05/08 12:33:48;;;;;;;57.50;2.40;;;22.30;1.00;;;;;;5112867;28;20976;-64
2021/05/08 12:36:17;;;;;;;57.20;2.10;;;22.30;1.00;;;;;;5113493;28;20486;-65
2021/05/08 12:38:44;;;;;;;57.07;2.40;;;22.40;1.00;;;;;;5113151;28;20452;-65
2021/05/08 12:41:30;;;;;;;57.80;2.57;;;22.50;1.00;;;;;;5112630;28;20576;-65
2021/05/08 12:44:05;;;;;;;57.30;2.30;;;22.90;1.00;;;;;;5112935;28;20824;-64
2021/05/08 12:46:52;;;;;;;56.27;2.10;;;23.50;1.00;;;;;;5113148;28;20516;-65
2021/05/08 12:49:20;;;;;;;57.00;2.10;;;24.00;1.00;;;;;;5113036;28;20441;-65
2021/05/08 12:51:47;;;;;;;56.73;2.20;;;24.10;1.00;;;;;;5112818;28;20931;-65